^^

..:: Storico WU ::..




Lo storico viene creato da WUnderground con i dati che la stazione Meteomincio invia al loro server. L' aggiornamento viene fatto ogni 5 minuti circa, tuttavia possono esserci intervalli pi¨ ampi a causa di errori, interruzioni di servizio o problemi nell' invio tramite FTP.


Storico stazione MeteoMincio
Giorno Sommario per Febbario 12, 2022 Unità:  Entrambi    Inglese   Metrico
Giorno Settimana Mese Anno
  Max: Min: Media:
Temperatura: 54.1 °F /  12.3 °C 34 °F /  1.1 °C 43.2 °F /  6.2 °C
Dew Point: 38.7 °F /  3.7 °C 24.4 °F /  -4.2 °C 31.5 °F /  -0.3 °C
Umidità: 94% 32.2% 68%
Velocità vento: 11.5mph /  18.5km/h - 3.6mph /  5.8km/h
Raffica: 20mph /  32.2km/h - -
Direzione- - East
Pressione: 30.5 in /  1033.2 hPa 30.4 in /  1027.7 hPa -
Precipitazioni: 0 in /  0.0 mm    
 
 
Tabulato Dati per Febbario 12, 2022
Ora Temperatura Dew Point Pressione Direzione Velocità vento Raffica Umidità Intensità pioggia (oraria) Info solare Situazione
00:04 39.9 °F /  4.4 °C 37.2 °F /  2.9 °C 30.4in /  1027.7hPa NE 0.4mph /  0.6km/h 2.3mph /  3.7km/h 90% 0in /  0.0mm 0 W/m2
00:09 39.7 °F /  4.3 °C 37 °F /  2.8 °C 30.4in /  1027.8hPa NE 1mph /  1.6km/h 2.3mph /  3.7km/h 90% 0in /  0.0mm 0 W/m2
00:14 39.6 °F /  4.2 °C 36.9 °F /  2.7 °C 30.4in /  1027.8hPa NE 1.3mph /  2.1km/h 2.3mph /  3.7km/h 90% 0in /  0.0mm 0 W/m2
00:19 39.6 °F /  4.2 °C 36.9 °F /  2.7 °C 30.4in /  1027.8hPa NE 1.4mph /  2.3km/h 2.3mph /  3.7km/h 90% 0in /  0.0mm 0 W/m2
00:24 39.4 °F /  4.1 °C 36.7 °F /  2.6 °C 30.4in /  1027.9hPa NE 1.6mph /  2.6km/h 2.3mph /  3.7km/h 90% 0in /  0.0mm 0 W/m2
00:29 39.2 °F /  4 °C 36.7 °F /  2.6 °C 30.4in /  1027.9hPa NE 1.5mph /  2.4km/h 2.3mph /  3.7km/h 90.3% 0in /  0.0mm 0 W/m2
00:34 39.2 °F /  4 °C 36.7 °F /  2.6 °C 30.4in /  1028.0hPa NE 1.9mph /  3.1km/h 3.5mph /  5.6km/h 91% 0in /  0.0mm 0 W/m2
00:39 39.2 °F /  4 °C 36.7 °F /  2.6 °C 30.4in /  1028.0hPa NE 1.9mph /  3km/h 3.5mph /  5.6km/h 91% 0in /  0.0mm 0 W/m2
00:44 39 °F /  3.9 °C 36.7 °F /  2.6 °C 30.4in /  1028.1hPa NE 2.1mph /  3.3km/h 3.5mph /  5.6km/h 91% 0in /  0.0mm 0 W/m2
00:49 38.8 °F /  3.8 °C 36.5 °F /  2.5 °C 30.4in /  1028.1hPa NE 2.3mph /  3.7km/h 3.5mph /  5.6km/h 91% 0in /  0.0mm 0 W/m2
00:54 38.8 °F /  3.8 °C 36.5 °F /  2.5 °C 30.4in /  1028.2hPa NE 2.2mph /  3.6km/h 3.5mph /  5.6km/h 91% 0in /  0.0mm 0 W/m2
00:59 38.8 °F /  3.8 °C 36.5 °F /  2.5 °C 30.4in /  1028.2hPa NE 1.7mph /  2.7km/h 3.5mph /  5.6km/h 90.8% 0in /  0.0mm 0 W/m2
01:04 38.7 °F /  3.7 °C 36.3 °F /  2.4 °C 30.4in /  1028.2hPa NE 1mph /  1.6km/h 3mph /  4.8km/h 91% 0in /  0.0mm 0 W/m2
01:09 38.5 °F /  3.6 °C 36.1 °F /  2.3 °C 30.4in /  1028.2hPa NE 1.9mph /  3.1km/h 3.5mph /  5.6km/h 91% 0in /  0.0mm 0 W/m2
01:14 39 °F /  3.9 °C 36.5 °F /  2.5 °C 30.4in /  1028.2hPa NE 2mph /  3.2km/h 3.5mph /  5.6km/h 91% 0in /  0.0mm 0 W/m2
01:19 39.2 °F /  4 °C 36.5 °F /  2.5 °C 30.4in /  1028.2hPa NE 1.6mph /  2.5km/h 3.5mph /  5.6km/h 90.2% 0in /  0.0mm 0 W/m2
01:24 38.3 °F /  3.5 °C 35.8 °F /  2.1 °C 30.4in /  1028.4hPa ENE 1.4mph /  2.2km/h 3.5mph /  5.6km/h 90.3% 0in /  0.0mm 0 W/m2
01:29 38.3 °F /  3.5 °C 36 °F /  2.2 °C 30.4in /  1028.5hPa East 2.4mph /  3.9km/h 3.5mph /  5.6km/h 91% 0in /  0.0mm 0 W/m2
01:34 37.9 °F /  3.3 °C 35.6 °F /  2 °C 30.4in /  1028.6hPa NE 1.8mph /  2.9km/h 3.5mph /  5.6km/h 91.2% 0in /  0.0mm 0 W/m2
01:39 37.6 °F /  3.1 °C 35.6 °F /  2 °C 30.4in /  1028.8hPa NE 1.8mph /  2.9km/h 3.5mph /  5.6km/h 92% 0in /  0.0mm 0 W/m2
01:44 37.9 °F /  3.3 °C 36.1 °F /  2.3 °C 30.4in /  1028.8hPa NE 1.8mph /  2.9km/h 3.5mph /  5.6km/h 92.8% 0in /  0.0mm 0 W/m2
01:49 38.1 °F /  3.4 °C 36 °F /  2.2 °C 30.4in /  1028.9hPa NNE 1.5mph /  2.4km/h 3mph /  4.8km/h 92% 0in /  0.0mm 0 W/m2
01:54 38.1 °F /  3.4 °C 36.1 °F /  2.3 °C 30.4in /  1029.0hPa NE 2.1mph /  3.3km/h 3.5mph /  5.6km/h 92.4% 0in /  0.0mm 0 W/m2
01:59 38.3 °F /  3.5 °C 36.3 °F /  2.4 °C 30.4in /  1029.1hPa ENE 2.9mph /  4.6km/h 4mph /  6.4km/h 92.2% 0in /  0.0mm 0 W/m2
02:04 38.8 °F /  3.8 °C 36.9 °F /  2.7 °C 30.4in /  1029.2hPa ENE 4.2mph /  6.8km/h 7mph /  11.3km/h 92% 0in /  0.0mm 0 W/m2
02:09 39.6 °F /  4.2 °C 37.2 °F /  2.9 °C 30.4in /  1029.2hPa ENE 5mph /  8km/h 8.1mph /  13km/h 91.3% 0in /  0.0mm 0 W/m2
02:14 40.1 °F /  4.5 °C 37.4 °F /  3 °C 30.4in /  1029.3hPa ENE 4.8mph /  7.8km/h 8mph /  12.9km/h 89.9% 0in /  0.0mm 0 W/m2
02:19 40.3 °F /  4.6 °C 37.4 °F /  3 °C 30.4in /  1029.4hPa ENE 4.6mph /  7.4km/h 7mph /  11.3km/h 89% 0in /  0.0mm 0 W/m2
02:24 40.1 °F /  4.5 °C 36.9 °F /  2.7 °C 30.4in /  1029.6hPa ENE 3.9mph /  6.3km/h 7mph /  11.3km/h 88.2% 0in /  0.0mm 0 W/m2
02:29 39.9 °F /  4.4 °C 36.9 °F /  2.7 °C 30.4in /  1029.7hPa ENE 3.9mph /  6.2km/h 7mph /  11.3km/h 88.6% 0in /  0.0mm 0 W/m2
02:34 39.7 °F /  4.3 °C 36.3 °F /  2.4 °C 30.4in /  1029.7hPa ENE 4.8mph /  7.8km/h 8.1mph /  13km/h 88% 0in /  0.0mm 0 W/m2
02:39 39.7 °F /  4.3 °C 36.5 °F /  2.5 °C 30.4in /  1029.7hPa ENE 5.6mph /  9km/h 9.2mph /  14.8km/h 88% 0in /  0.0mm 0 W/m2
02:44 39.9 °F /  4.4 °C 36.5 °F /  2.5 °C 30.4in /  1029.7hPa ENE 5mph /  8.1km/h 9mph /  14.5km/h 88% 0in /  0.0mm 0 W/m2
02:49 39.7 °F /  4.3 °C 36.5 °F /  2.5 °C 30.4in /  1029.7hPa ENE 5mph /  8km/h 8.1mph /  13km/h 88% 0in /  0.0mm 0 W/m2
02:54 39.6 °F /  4.2 °C 36.1 °F /  2.3 °C 30.4in /  1029.8hPa ENE 4mph /  6.4km/h 8mph /  12.9km/h 88% 0in /  0.0mm 0 W/m2
02:59 39.4 °F /  4.1 °C 36 °F /  2.2 °C 30.4in /  1029.8hPa ENE 3.9mph /  6.2km/h 7mph /  11.3km/h 88% 0in /  0.0mm 0 W/m2
03:04 39 °F /  3.9 °C 36 °F /  2.2 °C 30.4in /  1029.8hPa ENE 3.6mph /  5.8km/h 7mph /  11.3km/h 88.9% 0in /  0.0mm 0 W/m2
03:09 39 °F /  3.9 °C 36 °F /  2.2 °C 30.4in /  1029.8hPa ENE 2.9mph /  4.6km/h 6mph /  9.7km/h 89% 0in /  0.0mm 0 W/m2
03:14 38.8 °F /  3.8 °C 36 °F /  2.2 °C 30.4in /  1029.9hPa ENE 3.3mph /  5.3km/h 5mph /  8km/h 89.7% 0in /  0.0mm 0 W/m2
03:19 38.7 °F /  3.7 °C 36 °F /  2.2 °C 30.4in /  1029.9hPa ENE 2.9mph /  4.7km/h 5mph /  8km/h 90% 0in /  0.0mm 0 W/m2
03:24 38.7 °F /  3.7 °C 36 °F /  2.2 °C 30.4in /  1030.0hPa ENE 3.6mph /  5.8km/h 7mph /  11.3km/h 90% 0in /  0.0mm 0 W/m2
03:29 38.8 °F /  3.8 °C 36.1 °F /  2.3 °C 30.4in /  1030.1hPa ENE 4.2mph /  6.8km/h 7mph /  11.3km/h 90% 0in /  0.0mm 0 W/m2
03:34 38.8 °F /  3.8 °C 36.1 °F /  2.3 °C 30.4in /  1030.2hPa ENE 4.5mph /  7.2km/h 7mph /  11.3km/h 90% 0in /  0.0mm 0 W/m2
03:39 38.8 °F /  3.8 °C 36.1 °F /  2.3 °C 30.4in /  1030.2hPa ENE 4.7mph /  7.6km/h 8mph /  12.9km/h 90% 0in /  0.0mm 0 W/m2
03:44 39 °F /  3.9 °C 36.3 °F /  2.4 °C 30.4in /  1030.3hPa ENE 4.3mph /  7km/h 8.1mph /  13km/h 90% 0in /  0.0mm 0 W/m2
03:49 38.8 °F /  3.8 °C 36.1 °F /  2.3 °C 30.4in /  1030.4hPa ENE 3.9mph /  6.3km/h 8mph /  12.9km/h 90% 0in /  0.0mm 0 W/m2
03:54 38.8 °F /  3.8 °C 36.1 °F /  2.3 °C 30.4in /  1030.4hPa ENE 4.1mph /  6.6km/h 7mph /  11.3km/h 90% 0in /  0.0mm 0 W/m2
03:59 38.7 °F /  3.7 °C 36.1 °F /  2.3 °C 30.4in /  1030.5hPa ENE 4.6mph /  7.4km/h 7mph /  11.3km/h 90.6% 0in /  0.0mm 0 W/m2
04:04 38.5 °F /  3.6 °C 36.1 °F /  2.3 °C 30.4in /  1030.5hPa ENE 4.3mph /  6.9km/h 8.1mph /  13km/h 91% 0in /  0.0mm 0 W/m2
04:09 38.3 °F /  3.5 °C 36 °F /  2.2 °C 30.4in /  1030.5hPa East 4.2mph /  6.7km/h 8.1mph /  13km/h 91% 0in /  0.0mm 0 W/m2
04:14 38.5 °F /  3.6 °C 36 °F /  2.2 °C 30.4in /  1030.6hPa East 4.8mph /  7.8km/h 9mph /  14.5km/h 91% 0in /  0.0mm 0 W/m2
04:19 38.8 °F /  3.8 °C 36.3 °F /  2.4 °C 30.4in /  1030.7hPa East 6.6mph /  10.6km/h 11.5mph /  18.5km/h 91% 0in /  0.0mm 0 W/m2
04:24 39 °F /  3.9 °C 36.7 °F /  2.6 °C 30.4in /  1030.7hPa East 7mph /  11.2km/h 12mph /  19.3km/h 91% 0in /  0.0mm 0 W/m2
04:29 39.2 °F /  4 °C 36.9 °F /  2.7 °C 30.4in /  1030.7hPa East 6.6mph /  10.6km/h 10mph /  16.1km/h 91% 0in /  0.0mm 0 W/m2
04:34 39.4 °F /  4.1 °C 37 °F /  2.8 °C 30.4in /  1030.8hPa East 5.3mph /  8.5km/h 9mph /  14.5km/h 91% 0in /  0.0mm 0 W/m2
04:39 39.4 °F /  4.1 °C 36.9 °F /  2.7 °C 30.4in /  1030.8hPa East 4.6mph /  7.4km/h 8.1mph /  13km/h 90.5% 0in /  0.0mm 0 W/m2
04:44 39.4 °F /  4.1 °C 36.9 °F /  2.7 °C 30.4in /  1030.8hPa East 4mph /  6.5km/h 8mph /  12.9km/h 90.8% 0in /  0.0mm 0 W/m2
04:49 39.2 °F /  4 °C 36.9 °F /  2.7 °C 30.4in /  1030.8hPa East 4.8mph /  7.7km/h 7mph /  11.3km/h 91% 0in /  0.0mm 0 W/m2
04:54 39.2 °F /  4 °C 36.9 °F /  2.7 °C 30.4in /  1030.8hPa East 4.4mph /  7.1km/h 7mph /  11.3km/h 91% 0in /  0.0mm 0 W/m2
04:59 39 °F /  3.9 °C 36.7 °F /  2.6 °C 30.4in /  1030.8hPa East 4.3mph /  7km/h 7mph /  11.3km/h 91% 0in /  0.0mm 0 W/m2
05:04 39 °F /  3.9 °C 36.7 °F /  2.6 °C 30.4in /  1030.9hPa ENE 3.5mph /  5.7km/h 7mph /  11.3km/h 91% 0in /  0.0mm 0 W/m2
05:09 39 °F /  3.9 °C 36.5 °F /  2.5 °C 30.4in /  1031.0hPa ENE 3.8mph /  6.1km/h 6mph /  9.7km/h 91% 0in /  0.0mm 0 W/m2
05:14 38.8 °F /  3.8 °C 36.5 °F /  2.5 °C 30.4in /  1031.0hPa ENE 4.2mph /  6.7km/h 7mph /  11.3km/h 91% 0in /  0.0mm 0 W/m2
05:19 38.8 °F /  3.8 °C 36.5 °F /  2.5 °C 30.4in /  1031.0hPa ENE 3.6mph /  5.8km/h 7mph /  11.3km/h 91% 0in /  0.0mm 0 W/m2
05:24 38.8 °F /  3.8 °C 36.5 °F /  2.5 °C 30.4in /  1031.0hPa ENE 3.7mph /  5.9km/h 5mph /  8km/h 91% 0in /  0.0mm 0 W/m2
05:29 38.7 °F /  3.7 °C 36.3 °F /  2.4 °C 30.4in /  1031.0hPa ENE 2.9mph /  4.6km/h 5mph /  8km/h 91% 0in /  0.0mm 0 W/m2
05:34 38.5 °F /  3.6 °C 36.1 °F /  2.3 °C 30.4in /  1031.0hPa ENE 2.9mph /  4.7km/h 5mph /  8km/h 91% 0in /  0.0mm 0 W/m2
05:39 38.3 °F /  3.5 °C 36 °F /  2.2 °C 30.4in /  1031.0hPa ENE 2.6mph /  4.2km/h 5mph /  8km/h 91% 0in /  0.0mm 0 W/m2
05:44 38.1 °F /  3.4 °C 35.8 °F /  2.1 °C 30.5in /  1031.1hPa ENE 2.5mph /  4.1km/h 5mph /  8km/h 91.4% 0in /  0.0mm 0 W/m2
05:49 37.9 °F /  3.3 °C 36 °F /  2.2 °C 30.5in /  1031.1hPa ENE 2.7mph /  4.3km/h 5mph /  8km/h 91.9% 0in /  0.0mm 0 W/m2
05:54 37.9 °F /  3.3 °C 36 °F /  2.2 °C 30.5in /  1031.1hPa NE 2.4mph /  3.9km/h 4mph /  6.4km/h 92% 0in /  0.0mm 0 W/m2
05:59 37.8 °F /  3.2 °C 35.6 °F /  2 °C 30.5in /  1031.1hPa NE 2.7mph /  4.3km/h 4mph /  6.4km/h 92% 0in /  0.0mm 0 W/m2
06:04 37.4 °F /  3 °C 35.4 °F /  1.9 °C 30.5in /  1031.2hPa NE 2.7mph /  4.4km/h 4mph /  6.4km/h 92% 0in /  0.0mm 0 W/m2
06:09 37.2 °F /  2.9 °C 35.2 °F /  1.8 °C 30.5in /  1031.2hPa NE 2.5mph /  4.1km/h 4mph /  6.4km/h 92% 0in /  0.0mm 0 W/m2
06:14 37.2 °F /  2.9 °C 35.2 °F /  1.8 °C 30.5in /  1031.2hPa NE 2.4mph /  3.9km/h 4mph /  6.4km/h 92% 0in /  0.0mm 0 W/m2
06:19 37 °F /  2.8 °C 35.1 °F /  1.7 °C 30.5in /  1031.1hPa NE 2.5mph /  4.1km/h 4mph /  6.4km/h 92.1% 0in /  0.0mm 0 W/m2
06:24 37.2 °F /  2.9 °C 35.2 °F /  1.8 °C 30.5in /  1031.1hPa ENE 1.9mph /  3km/h 4mph /  6.4km/h 92.3% 0in /  0.0mm 0 W/m2
06:29 37.2 °F /  2.9 °C 35.2 °F /  1.8 °C 30.5in /  1031.2hPa ENE 2.4mph /  3.9km/h 4mph /  6.4km/h 92% 0in /  0.0mm 0 W/m2
06:34 36.9 °F /  2.7 °C 34.9 °F /  1.6 °C 30.5in /  1031.2hPa NE 2.5mph /  4km/h 4mph /  6.4km/h 92% 0in /  0.0mm 0 W/m2
06:39 36.7 °F /  2.6 °C 34.5 °F /  1.4 °C 30.5in /  1031.2hPa NE 2.3mph /  3.7km/h 4mph /  6.4km/h 92% 0in /  0.0mm 0 W/m2
06:44 36.5 °F /  2.5 °C 34.5 °F /  1.4 °C 30.5in /  1031.2hPa NE 2.2mph /  3.6km/h 3.5mph /  5.6km/h 92% 0in /  0.0mm 0 W/m2
06:49 36.3 °F /  2.4 °C 34.2 °F /  1.2 °C 30.5in /  1031.3hPa NE 2.1mph /  3.4km/h 3.5mph /  5.6km/h 92% 0in /  0.0mm 0 W/m2
06:54 36.1 °F /  2.3 °C 34 °F /  1.1 °C 30.5in /  1031.3hPa NE 2.4mph /  3.9km/h 3.5mph /  5.6km/h 92% 0in /  0.0mm 0 W/m2
06:59 36.1 °F /  2.3 °C 34.2 °F /  1.2 °C 30.5in /  1031.4hPa NE 1.5mph /  2.4km/h 3.5mph /  5.6km/h 92.4% 0in /  0.0mm 0 W/m2
07:04 35.8 °F /  2.1 °C 33.8 °F /  1 °C 30.5in /  1031.5hPa NE 0.4mph /  0.6km/h 3mph /  4.8km/h 92.4% 0in /  0.0mm 0 W/m2
07:09 35.2 °F /  1.8 °C 33.3 °F /  0.7 °C 30.5in /  1031.5hPa Calm   2mph /  3.2km/h 92.5% 0in /  0.0mm 0 W/m2
07:14 35.1 °F /  1.7 °C 33.3 °F /  0.7 °C 30.5in /  1031.6hPa Calm   1.2mph /  1.9km/h 93% 0in /  0.0mm 0 W/m2
07:19 34.9 °F /  1.6 °C 33.1 °F /  0.6 °C 30.5in /  1031.6hPa Calm   1mph /  1.6km/h 93% 0in /  0.0mm 0 W/m2
07:24 34.7 °F /  1.5 °C 32.9 °F /  0.5 °C 30.5in /  1031.7hPa NE 0.2mph /  0.3km/h 1.2mph /  1.9km/h 93% 0in /  0.0mm 0 W/m2
07:29 34.3 °F /  1.3 °C 32.5 °F /  0.3 °C 30.5in /  1031.7hPa ESE 0.6mph /  0.9km/h 2.3mph /  3.7km/h 93% 0in /  0.0mm 5 W/m2
07:34 34.3 °F /  1.3 °C 32.5 °F /  0.3 °C 30.5in /  1031.8hPa ESE 0.2mph /  0.3km/h 2mph /  3.2km/h 93% 0in /  0.0mm 9 W/m2
07:39 34.3 °F /  1.3 °C 32.5 °F /  0.3 °C 30.5in /  1031.8hPa SE 0.1mph /  0.1km/h 1.2mph /  1.9km/h 93.2% 0in /  0.0mm 12 W/m2
07:44 34.3 °F /  1.3 °C 32.5 °F /  0.3 °C 30.5in /  1031.8hPa Calm   1mph /  1.6km/h 93.3% 0in /  0.0mm 14 W/m2
07:49 34.2 °F /  1.2 °C 32.5 °F /  0.3 °C 30.5in /  1031.9hPa Calm     93.8% 0in /  0.0mm 18 W/m2
07:54 34.2 °F /  1.2 °C 32.7 °F /  0.4 °C 30.5in /  1031.9hPa Calm     93.9% 0in /  0.0mm 19 W/m2
07:59 34.2 °F /  1.2 °C 32.7 °F /  0.4 °C 30.5in /  1031.9hPa Calm   1.2mph /  1.9km/h 93.8% 0in /  0.0mm 23 W/m2
08:04 34 °F /  1.1 °C 32.4 °F /  0.2 °C 30.5in /  1031.9hPa Calm   1mph /  1.6km/h 93.5% 0in /  0.0mm 37 W/m2
08:09 34.2 °F /  1.2 °C 32.5 °F /  0.3 °C 30.5in /  1031.9hPa Calm     94% 0in /  0.0mm 54 W/m2
08:14 34.3 °F /  1.3 °C 32.9 °F /  0.5 °C 30.5in /  1032.0hPa Calm     94% 0in /  0.0mm 67 W/m2
08:19 34.7 °F /  1.5 °C 33.1 °F /  0.6 °C 30.5in /  1032.1hPa Calm     94% 0in /  0.0mm 76 W/m2
08:24 35.2 °F /  1.8 °C 33.6 °F /  0.9 °C 30.5in /  1032.2hPa Calm     94% 0in /  0.0mm 91 W/m2
08:29 35.8 °F /  2.1 °C 34.2 °F /  1.2 °C 30.5in /  1032.3hPa SE 0.2mph /  0.4km/h 1.2mph /  1.9km/h 94% 0in /  0.0mm 105 W/m2
08:34 36.5 °F /  2.5 °C 34.9 °F /  1.6 °C 30.5in /  1032.4hPa SE 0.4mph /  0.7km/h 1.2mph /  1.9km/h 93.6% 0in /  0.0mm 120 W/m2
08:39 37.4 °F /  3 °C 35.4 °F /  1.9 °C 30.5in /  1032.5hPa SE 0.2mph /  0.3km/h 1.2mph /  1.9km/h 92.6% 0in /  0.0mm 132 W/m2
08:44 38.1 °F /  3.4 °C 35.8 °F /  2.1 °C 30.5in /  1032.6hPa ESE 0.3mph /  0.5km/h 1.2mph /  1.9km/h 91.2% 0in /  0.0mm 144 W/m2
08:49 38.7 °F /  3.7 °C 36 °F /  2.2 °C 30.5in /  1032.7hPa NNW 0.9mph /  1.4km/h 2.3mph /  3.7km/h 90% 0in /  0.0mm 162 W/m2
08:54 39 °F /  3.9 °C 36.1 °F /  2.3 °C 30.5in /  1032.7hPa NW 0.7mph /  1.2km/h 2.3mph /  3.7km/h 89.4% 0in /  0.0mm 176 W/m2
08:59 39.4 °F /  4.1 °C 36.5 °F /  2.5 °C 30.5in /  1032.7hPa NNW 1.1mph /  1.7km/h 2.3mph /  3.7km/h 89% 0in /  0.0mm 192 W/m2
09:04 40.1 °F /  4.5 °C 36.9 °F /  2.7 °C 30.5in /  1032.7hPa NNW 0.9mph /  1.4km/h 2.3mph /  3.7km/h 88.4% 0in /  0.0mm 204 W/m2
09:09 40.5 °F /  4.7 °C 37.2 °F /  2.9 °C 30.5in /  1032.8hPa North 0.7mph /  1.1km/h 2.3mph /  3.7km/h 87.9% 0in /  0.0mm 214 W/m2
09:14 41.4 °F /  5.2 °C 37.6 °F /  3.1 °C 30.5in /  1032.8hPa NNE 1.1mph /  1.7km/h 3.5mph /  5.6km/h 86.1% 0in /  0.0mm 227 W/m2
09:19 42.4 °F /  5.8 °C 37.6 °F /  3.1 °C 30.5in /  1032.8hPa NNE 2.4mph /  3.9km/h 4mph /  6.4km/h 82.8% 0in /  0.0mm 239 W/m2
09:24 43.2 °F /  6.2 °C 37.4 °F /  3 °C 30.5in /  1032.9hPa NE 2.2mph /  3.6km/h 4mph /  6.4km/h 80.2% 0in /  0.0mm 251 W/m2
09:29 43.3 °F /  6.3 °C 37.4 °F /  3 °C 30.5in /  1033.0hPa NE 1.3mph /  2.1km/h 4mph /  6.4km/h 79.7% 0in /  0.0mm 265 W/m2
09:34 43.3 °F /  6.3 °C 37.4 °F /  3 °C 30.5in /  1033.0hPa North 1.3mph /  2.1km/h 3.5mph /  5.6km/h 79.3% 0in /  0.0mm 276 W/m2
09:39 43.9 °F /  6.6 °C 37.4 °F /  3 °C 30.5in /  1033.0hPa North 1.9mph /  3.1km/h 3.5mph /  5.6km/h 78.1% 0in /  0.0mm 290 W/m2
09:44 44.4 °F /  6.9 °C 37.6 °F /  3.1 °C 30.5in /  1033.0hPa North 1.6mph /  2.6km/h 3.5mph /  5.6km/h 76.8% 0in /  0.0mm 302 W/m2
09:49 45.1 °F /  7.3 °C 37.9 °F /  3.3 °C 30.5in /  1033.0hPa NNE 1.4mph /  2.3km/h 3.5mph /  5.6km/h 75.7% 0in /  0.0mm 315 W/m2
09:54 45.7 °F /  7.6 °C 38.7 °F /  3.7 °C 30.5in /  1033.0hPa NNE 2mph /  3.2km/h 4mph /  6.4km/h 76.1% 0in /  0.0mm 327 W/m2
09:59 46.6 °F /  8.1 °C 37.9 °F /  3.3 °C 30.5in /  1033.1hPa NE 3.1mph /  5km/h 7mph /  11.3km/h 71.7% 0in /  0.0mm 339 W/m2
10:04 46.9 °F /  8.3 °C 37.9 °F /  3.3 °C 30.5in /  1033.0hPa NE 3.2mph /  5.2km/h 7mph /  11.3km/h 70.7% 0in /  0.0mm 350 W/m2
10:09 46.9 °F /  8.3 °C 37.2 °F /  2.9 °C 30.5in /  1033.0hPa NE 3.4mph /  5.5km/h 7mph /  11.3km/h 68.4% 0in /  0.0mm 360 W/m2
10:14 47.3 °F /  8.5 °C 37.2 °F /  2.9 °C 30.5in /  1033.0hPa ENE 4.4mph /  7.1km/h 8.1mph /  13km/h 67.8% 0in /  0.0mm 373 W/m2
10:19 47.8 °F /  8.8 °C 37 °F /  2.8 °C 30.5in /  1033.1hPa ENE 4.9mph /  7.9km/h 9.2mph /  14.8km/h 65.9% 0in /  0.0mm 381 W/m2
10:24 48 °F /  8.9 °C 36.5 °F /  2.5 °C 30.5in /  1033.1hPa ENE 5.4mph /  8.7km/h 9.2mph /  14.8km/h 64.4% 0in /  0.0mm 392 W/m2
10:29 48.4 °F /  9.1 °C 35.6 °F /  2 °C 30.5in /  1033.1hPa ENE 6.7mph /  10.8km/h 12mph /  19.3km/h 61.3% 0in /  0.0mm 401 W/m2
10:34 48.7 °F /  9.3 °C 35.2 °F /  1.8 °C 30.5in /  1033.1hPa ENE 6.2mph /  9.9km/h 12mph /  19.3km/h 59.2% 0in /  0.0mm 410 W/m2
10:39 49.1 °F /  9.5 °C 34.9 °F /  1.6 °C 30.5in /  1033.2hPa ENE 7mph /  11.3km/h 11.5mph /  18.5km/h 57.9% 0in /  0.0mm 418 W/m2
10:44 49.3 °F /  9.6 °C 34.3 °F /  1.3 °C 30.5in /  1033.2hPa ENE 7.6mph /  12.3km/h 12mph /  19.3km/h 56.1% 0in /  0.0mm 424 W/m2
10:49 49.3 °F /  9.6 °C 34.3 °F /  1.3 °C 30.5in /  1033.2hPa East 5.9mph /  9.5km/h 12mph /  19.3km/h 56.3% 0in /  0.0mm 434 W/m2
10:54 49.6 °F /  9.8 °C 34.2 °F /  1.2 °C 30.5in /  1033.2hPa ENE 5.3mph /  8.6km/h 10mph /  16.1km/h 55% 0in /  0.0mm 443 W/m2
10:59 49.6 °F /  9.8 °C 33.3 °F /  0.7 °C 30.5in /  1033.2hPa East 5.6mph /  9km/h 11.5mph /  18.5km/h 53.1% 0in /  0.0mm 450 W/m2
11:04 50 °F /  10 °C 32.5 °F /  0.3 °C 30.5in /  1033.2hPa ENE 7.2mph /  11.6km/h 12mph /  19.3km/h 51.1% 0in /  0.0mm 457 W/m2
11:09 50.2 °F /  10.1 °C 33.3 °F /  0.7 °C 30.5in /  1033.2hPa East 5.8mph /  9.3km/h 12mph /  19.3km/h 52.2% 0in /  0.0mm 461 W/m2
11:14 50.4 °F /  10.2 °C 32 °F /  0 °C 30.5in /  1033.2hPa ESE 7.6mph /  12.3km/h 12mph /  19.3km/h 49.4% 0in /  0.0mm 469 W/m2
11:19 50.5 °F /  10.3 °C 32 °F /  0 °C 30.5in /  1033.2hPa East 6.8mph /  11km/h 12mph /  19.3km/h 48.8% 0in /  0.0mm 476 W/m2
11:24 50.9 °F /  10.5 °C 32.2 °F /  0.1 °C 30.5in /  1033.2hPa East 5.8mph /  9.4km/h 10mph /  16.1km/h 48.6% 0in /  0.0mm 482 W/m2
11:29 51.1 °F /  10.6 °C 32.2 °F /  0.1 °C 30.5in /  1033.1hPa East 5.5mph /  8.8km/h 11.5mph /  18.5km/h 48.4% 0in /  0.0mm 485 W/m2
11:34 51.4 °F /  10.8 °C 32.4 °F /  0.2 °C 30.5in /  1033.1hPa ENE 6.3mph /  10.1km/h 12mph /  19.3km/h 47.9% 0in /  0.0mm 492 W/m2
11:39 52 °F /  11.1 °C 32 °F /  0 °C 30.5in /  1033.0hPa NE 6.9mph /  11.1km/h 15mph /  24.1km/h 46.3% 0in /  0.0mm 497 W/m2
11:44 52 °F /  11.1 °C 28.8 °F /  -1.8 °C 30.5in /  1033.0hPa ENE 11.5mph /  18.5km/h 18.4mph /  29.6km/h 40.5% 0in /  0.0mm 499 W/m2
11:49 52 °F /  11.1 °C 28.6 °F /  -1.9 °C 30.5in /  1033.0hPa ENE 10.6mph /  17km/h 18mph /  29km/h 40.3% 0in /  0.0mm 503 W/m2
11:54 52 °F /  11.1 °C 28.2 °F /  -2.1 °C 30.5in /  1033.0hPa East 9mph /  14.5km/h 15mph /  24.1km/h 40% 0in /  0.0mm 512 W/m2
11:59 52 °F /  11.1 °C 28.8 °F /  -1.8 °C 30.5in /  1032.9hPa East 8.5mph /  13.7km/h 15mph /  24.1km/h 40.5% 0in /  0.0mm 512 W/m2
12:04 52 °F /  11.1 °C 28.6 °F /  -1.9 °C 30.5in /  1032.8hPa East 8.8mph /  14.1km/h 15mph /  24.1km/h 40.1% 0in /  0.0mm 513 W/m2
12:09 52.2 °F /  11.2 °C 28.6 °F /  -1.9 °C 30.5in /  1032.8hPa ENE 8mph /  12.9km/h 15mph /  24.1km/h 40% 0in /  0.0mm 517 W/m2
12:14 52.3 °F /  11.3 °C 27.3 °F /  -2.6 °C 30.5in /  1032.7hPa ENE 10.6mph /  17.1km/h 16.1mph /  25.9km/h 38% 0in /  0.0mm 520 W/m2
12:19 52.5 °F /  11.4 °C 28 °F /  -2.2 °C 30.5in /  1032.7hPa East 9.2mph /  14.8km/h 16mph /  25.7km/h 38.7% 0in /  0.0mm 524 W/m2
12:24 52.7 °F /  11.5 °C 28.4 °F /  -2 °C 30.5in /  1032.5hPa ENE 10.6mph /  17.1km/h 15mph /  24.1km/h 38.9% 0in /  0.0mm 522 W/m2
12:29 52.7 °F /  11.5 °C 28 °F /  -2.2 °C 30.5in /  1032.5hPa ENE 8.5mph /  13.7km/h 15mph /  24.1km/h 38.4% 0in /  0.0mm 527 W/m2
12:34 52.7 °F /  11.5 °C 27.3 °F /  -2.6 °C 30.5in /  1032.4hPa East 10.9mph /  17.6km/h 20mph /  32.2km/h 37.3% 0in /  0.0mm 527 W/m2
12:39 52.9 °F /  11.6 °C 25.9 °F /  -3.4 °C 30.5in /  1032.3hPa East 10.3mph /  16.6km/h 16.1mph /  25.9km/h 34.9% 0in /  0.0mm 529 W/m2
12:44 52.7 °F /  11.5 °C 25.2 °F /  -3.8 °C 30.5in /  1032.2hPa East 11.5mph /  18.5km/h 17.3mph /  27.8km/h 34.1% 0in /  0.0mm 529 W/m2
12:49 52.9 °F /  11.6 °C 24.8 °F /  -4 °C 30.5in /  1032.1hPa East 10mph /  16.1km/h 17.3mph /  27.8km/h 33.4% 0in /  0.0mm 529 W/m2
12:54 53.1 °F /  11.7 °C 24.8 °F /  -4 °C 30.5in /  1032.0hPa East 9.8mph /  15.8km/h 17mph /  27.4km/h 33.4% 0in /  0.0mm 529 W/m2
12:59 53.1 °F /  11.7 °C 24.8 °F /  -4 °C 30.5in /  1031.9hPa ESE 11.2mph /  18.1km/h 17.3mph /  27.8km/h 33.3% 0in /  0.0mm 527 W/m2
13:04 53.2 °F /  11.8 °C 25.3 °F /  -3.7 °C 30.5in /  1031.9hPa East 10.4mph /  16.8km/h 18mph /  29km/h 33.8% 0in /  0.0mm 527 W/m2
13:09 53.2 °F /  11.8 °C 25.2 °F /  -3.8 °C 30.5in /  1031.8hPa East 10.1mph /  16.2km/h 18mph /  29km/h 33.4% 0in /  0.0mm 524 W/m2
13:14 52.9 °F /  11.6 °C 24.6 °F /  -4.1 °C 30.5in /  1031.8hPa ESE 8.6mph /  13.8km/h 16mph /  25.7km/h 33.1% 0in /  0.0mm 524 W/m2
13:19 53.2 °F /  11.8 °C 25.3 °F /  -3.7 °C 30.5in /  1031.7hPa East 9.1mph /  14.7km/h 15mph /  24.1km/h 33.8% 0in /  0.0mm 520 W/m2
13:24 53.8 °F /  12.1 °C 25.7 °F /  -3.5 °C 30.5in /  1031.7hPa ENE 6.6mph /  10.7km/h 15mph /  24.1km/h 33.7% 0in /  0.0mm 519 W/m2
13:29 54 °F /  12.2 °C 25.7 °F /  -3.5 °C 30.5in /  1031.6hPa East 8.3mph /  13.4km/h 17.3mph /  27.8km/h 33.5% 0in /  0.0mm 513 W/m2
13:34 53.2 °F /  11.8 °C 24.8 °F /  -4 °C 30.5in /  1031.5hPa ESE 7.1mph /  11.4km/h 17mph /  27.4km/h 32.9% 0in /  0.0mm 510 W/m2
13:39 53.6 °F /  12 °C 24.8 °F /  -4 °C 30.5in /  1031.4hPa East 8mph /  12.9km/h 14mph /  22.5km/h 32.6% 0in /  0.0mm 506 W/m2
13:44 53.8 °F /  12.1 °C 24.8 °F /  -4 °C 30.5in /  1031.4hPa East 7.8mph /  12.6km/h 15mph /  24.1km/h 32.2% 0in /  0.0mm 504 W/m2
13:49 53.2 °F /  11.8 °C 24.4 °F /  -4.2 °C 30.5in /  1031.4hPa ESE 9.1mph /  14.7km/h 15mph /  24.1km/h 32.4% 0in /  0.0mm 497 W/m2
13:54 53.6 °F /  12 °C 25.2 °F /  -3.8 °C 30.5in /  1031.3hPa East 8.2mph /  13.2km/h 15mph /  24.1km/h 33.1% 0in /  0.0mm 492 W/m2
13:59 53.4 °F /  11.9 °C 25 °F /  -3.9 °C 30.5in /  1031.2hPa East 8.3mph /  13.3km/h 14mph /  22.5km/h 32.9% 0in /  0.0mm 485 W/m2
14:04 53.8 °F /  12.1 °C 25.5 °F /  -3.6 °C 30.5in /  1031.2hPa East 7mph /  11.2km/h 12.7mph /  20.4km/h 33.4% 0in /  0.0mm 482 W/m2
14:09 54 °F /  12.2 °C 25.3 °F /  -3.7 °C 30.4in /  1031.0hPa East 9.7mph /  15.6km/h 19.6mph /  31.5km/h 32.9% 0in /  0.0mm 473 W/m2
14:14 53.8 °F /  12.1 °C 25.3 °F /  -3.7 °C 30.4in /  1031.0hPa East 8.3mph /  13.3km/h 12.7mph /  20.4km/h 33% 0in /  0.0mm 468 W/m2
14:19 53.8 °F /  12.1 °C 25.7 °F /  -3.5 °C 30.4in /  1031.0hPa East 7.6mph /  12.2km/h 15mph /  24.1km/h 33.6% 0in /  0.0mm 457 W/m2
14:24 53.4 °F /  11.9 °C 25.3 °F /  -3.7 °C 30.4in /  1031.0hPa East 5.5mph /  8.9km/h 11mph /  17.7km/h 33.5% 0in /  0.0mm 454 W/m2
14:29 53.8 °F /  12.1 °C 25.7 °F /  -3.5 °C 30.4in /  1030.9hPa ESE 7.6mph /  12.3km/h 11.5mph /  18.5km/h 33.7% 0in /  0.0mm 445 W/m2
14:34 53.6 °F /  12 °C 25.2 °F /  -3.8 °C 30.4in /  1030.8hPa East 6.8mph /  10.9km/h 12mph /  19.3km/h 33.1% 0in /  0.0mm 438 W/m2
14:39 54.1 °F /  12.3 °C 26.2 °F /  -3.2 °C 30.4in /  1030.8hPa ENE 7.1mph /  11.5km/h 15mph /  24.1km/h 34% 0in /  0.0mm 429 W/m2
14:44 54.1 °F /  12.3 °C 25.5 °F /  -3.6 °C 30.4in /  1030.7hPa East 9.9mph /  16km/h 15mph /  24.1km/h 32.7% 0in /  0.0mm 422 W/m2
14:49 53.8 °F /  12.1 °C 25 °F /  -3.9 °C 30.4in /  1030.6hPa East 10.4mph /  16.7km/h 17.3mph /  27.8km/h 32.4% 0in /  0.0mm 411 W/m2
14:54 53.8 °F /  12.1 °C 25.2 °F /  -3.8 °C 30.4in /  1030.5hPa East 9.4mph /  15.2km/h 17.3mph /  27.8km/h 32.7% 0in /  0.0mm 403 W/m2
14:59 53.6 °F /  12 °C 25.5 °F /  -3.6 °C 30.4in /  1030.5hPa East 9.5mph /  15.3km/h 16.1mph /  25.9km/h 33.5% 0in /  0.0mm 394 W/m2
15:04 53.4 °F /  11.9 °C 25.7 °F /  -3.5 °C 30.4in /  1030.5hPa East 7.5mph /  12km/h 16mph /  25.7km/h 33.9% 0in /  0.0mm 385 W/m2
15:09 53.6 °F /  12 °C 25.7 °F /  -3.5 °C 30.4in /  1030.4hPa ESE 6.8mph /  11km/h 15mph /  24.1km/h 33.7% 0in /  0.0mm 376 W/m2
15:14 53.6 °F /  12 °C 25.7 °F /  -3.5 °C 30.4in /  1030.4hPa ESE 10.4mph /  16.7km/h 16.1mph /  25.9km/h 33.7% 0in /  0.0mm 366 W/m2
15:19 53.6 °F /  12 °C 25.3 °F /  -3.7 °C 30.4in /  1030.4hPa East 9.2mph /  14.8km/h 16mph /  25.7km/h 33.4% 0in /  0.0mm 355 W/m2
15:24 53.6 °F /  12 °C 25.3 °F /  -3.7 °C 30.4in /  1030.4hPa ESE 8.8mph /  14.1km/h 15mph /  24.1km/h 33.4% 0in /  0.0mm 343 W/m2
15:29 53.4 °F /  11.9 °C 25.3 °F /  -3.7 °C 30.4in /  1030.3hPa East 9.3mph /  15km/h 17.3mph /  27.8km/h 33.5% 0in /  0.0mm 330 W/m2
15:34 53.4 °F /  11.9 °C 25.2 °F /  -3.8 °C 30.4in /  1030.3hPa East 7.8mph /  12.6km/h 17mph /  27.4km/h 33.4% 0in /  0.0mm 323 W/m2
15:39 53.6 °F /  12 °C 25.7 °F /  -3.5 °C 30.4in /  1030.2hPa ENE 5mph /  8.1km/h 14mph /  22.5km/h 33.7% 0in /  0.0mm 309 W/m2
15:44 53.6 °F /  12 °C 25.3 °F /  -3.7 °C 30.4in /  1030.2hPa ENE 7.3mph /  11.8km/h 11.5mph /  18.5km/h 33.2% 0in /  0.0mm 297 W/m2
15:49 53.6 °F /  12 °C 25.2 °F /  -3.8 °C 30.4in /  1030.2hPa East 7.1mph /  11.4km/h 12mph /  19.3km/h 33% 0in /  0.0mm 285 W/m2
15:54 53.6 °F /  12 °C 25.7 °F /  -3.5 °C 30.4in /  1030.1hPa East 5.2mph /  8.4km/h 12mph /  19.3km/h 33.7% 0in /  0.0mm 272 W/m2
15:59 53.6 °F /  12 °C 26.6 °F /  -3 °C 30.4in /  1030.1hPa East 6.1mph /  9.8km/h 9.2mph /  14.8km/h 35% 0in /  0.0mm 260 W/m2
16:04 53.4 °F /  11.9 °C 26.8 °F /  -2.9 °C 30.4in /  1030.0hPa ESE 7.8mph /  12.6km/h 12mph /  19.3km/h 35.5% 0in /  0.0mm 248 W/m2
16:09 53.2 °F /  11.8 °C 26.8 °F /  -2.9 °C 30.4in /  1030.0hPa East 8mph /  12.9km/h 13mph /  20.9km/h 35.6% 0in /  0.0mm 236 W/m2
16:14 53.2 °F /  11.8 °C 26.8 °F /  -2.9 °C 30.4in /  1030.0hPa East 7.6mph /  12.2km/h 13mph /  20.9km/h 36% 0in /  0.0mm 220 W/m2
16:19 52.9 °F /  11.6 °C 27 °F /  -2.8 °C 30.4in /  1030.0hPa East 6.8mph /  11km/h 12mph /  19.3km/h 36.5% 0in /  0.0mm 202 W/m2
16:24 53.1 °F /  11.7 °C 27.1 °F /  -2.7 °C 30.4in /  1029.9hPa East 7.4mph /  11.9km/h 12mph /  19.3km/h 36.7% 0in /  0.0mm 171 W/m2
16:29 52.9 °F /  11.6 °C 27 °F /  -2.8 °C 30.4in /  1029.9hPa East 8.6mph /  13.8km/h 14mph /  22.5km/h 36.6% 0in /  0.0mm 160 W/m2
16:34 52.5 °F /  11.4 °C 27.3 °F /  -2.6 °C 30.4in /  1029.8hPa East 7.8mph /  12.6km/h 14mph /  22.5km/h 37.5% 0in /  0.0mm 49 W/m2
16:39 52.3 °F /  11.3 °C 27.3 °F /  -2.6 °C 30.4in /  1029.8hPa East 5.4mph /  8.7km/h 13mph /  20.9km/h 37.7% 0in /  0.0mm 44 W/m2
16:44 52.2 °F /  11.2 °C 27.3 °F /  -2.6 °C 30.4in /  1029.8hPa East 5.5mph /  8.8km/h 10mph /  16.1km/h 38% 0in /  0.0mm 69 W/m2
16:49 52 °F /  11.1 °C 27.3 °F /  -2.6 °C 30.4in /  1029.7hPa East 6mph /  9.6km/h 13mph /  20.9km/h 38.4% 0in /  0.0mm 91 W/m2
16:54 51.8 °F /  11 °C 27.3 °F /  -2.6 °C 30.4in /  1029.7hPa East 6.4mph /  10.3km/h 11.5mph /  18.5km/h 38.5% 0in /  0.0mm 91 W/m2
16:59 51.6 °F /  10.9 °C 27.3 °F /  -2.6 °C 30.4in /  1029.7hPa East 4.8mph /  7.7km/h 12mph /  19.3km/h 39% 0in /  0.0mm 70 W/m2
17:04 51.4 °F /  10.8 °C 27.5 °F /  -2.5 °C 30.4in /  1029.7hPa ESE 4.1mph /  6.6km/h 9mph /  14.5km/h 39.4% 0in /  0.0mm 49 W/m2
17:09 51.3 °F /  10.7 °C 27.9 °F /  -2.3 °C 30.4in /  1029.7hPa ESE 5.3mph /  8.5km/h 9.2mph /  14.8km/h 40.4% 0in /  0.0mm 42 W/m2
17:14 50.9 °F /  10.5 °C 28.4 °F /  -2 °C 30.4in /  1029.8hPa SE 3.7mph /  5.9km/h 9mph /  14.5km/h 41.8% 0in /  0.0mm 35 W/m2
17:19 50.5 °F /  10.3 °C 28.4 °F /  -2 °C 30.4in /  1029.8hPa SE 2.6mph /  4.2km/h 7mph /  11.3km/h 42.3% 0in /  0.0mm 21 W/m2
17:24 50 °F /  10 °C 28.6 °F /  -1.9 °C 30.4in /  1029.8hPa SE 2.9mph /  4.7km/h 4mph /  6.4km/h 43.2% 0in /  0.0mm 14 W/m2
17:29 49.6 °F /  9.8 °C 28.6 °F /  -1.9 °C 30.4in /  1029.8hPa ESE 2.6mph /  4.2km/h 5mph /  8km/h 43.8% 0in /  0.0mm 9 W/m2
17:34 49.1 °F /  9.5 °C 28.6 °F /  -1.9 °C 30.4in /  1029.9hPa SE 1.8mph /  2.9km/h 5mph /  8km/h 45% 0in /  0.0mm 5 W/m2
17:39 48.7 °F /  9.3 °C 28.8 °F /  -1.8 °C 30.4in /  1030.0hPa SE 1.4mph /  2.3km/h 3.5mph /  5.6km/h 46.1% 0in /  0.0mm 0 W/m2
17:44 48.2 °F /  9 °C 28.8 °F /  -1.8 °C 30.4in /  1030.0hPa SE 1.4mph /  2.3km/h 3mph /  4.8km/h 46.9% 0in /  0.0mm 0 W/m2
17:49 47.7 °F /  8.7 °C 28.9 °F /  -1.7 °C 30.4in /  1030.0hPa SE 1.4mph /  2.2km/h 3mph /  4.8km/h 48% 0in /  0.0mm 0 W/m2
17:54 47.1 °F /  8.4 °C 28.9 °F /  -1.7 °C 30.4in /  1030.1hPa SE 1.5mph /  2.4km/h 3.5mph /  5.6km/h 49.1% 0in /  0.0mm 0 W/m2
17:59 46.2 °F /  7.9 °C 29.7 °F /  -1.3 °C 30.4in /  1030.1hPa SE 1.4mph /  2.2km/h 3.5mph /  5.6km/h 52.4% 0in /  0.0mm 0 W/m2
18:04 45.7 °F /  7.6 °C 29.7 °F /  -1.3 °C 30.4in /  1030.2hPa SE 1.4mph /  2.2km/h 3.5mph /  5.6km/h 53.4% 0in /  0.0mm 0 W/m2
18:09 45.5 °F /  7.5 °C 29.3 °F /  -1.5 °C 30.4in /  1030.2hPa SE 1.5mph /  2.4km/h 3.5mph /  5.6km/h 52.7% 0in /  0.0mm 0 W/m2
18:14 46 °F /  7.8 °C 28.9 °F /  -1.7 °C 30.4in /  1030.2hPa ESE 2mph /  3.2km/h 3.5mph /  5.6km/h 51.2% 0in /  0.0mm 0 W/m2
18:19 46.2 °F /  7.9 °C 29.1 °F /  -1.6 °C 30.4in /  1030.2hPa ESE 1.9mph /  3km/h 3.5mph /  5.6km/h 51% 0in /  0.0mm 0 W/m2
18:24 45.9 °F /  7.7 °C 29.3 °F /  -1.5 °C 30.4in /  1030.2hPa ESE 1.7mph /  2.7km/h 3mph /  4.8km/h 52% 0in /  0.0mm 0 W/m2
18:29 45.1 °F /  7.3 °C 29.3 °F /  -1.5 °C 30.4in /  1030.2hPa ESE 0.9mph /  1.5km/h 3.5mph /  5.6km/h 53.5% 0in /  0.0mm 0 W/m2
18:34 45 °F /  7.2 °C 29.3 °F /  -1.5 °C 30.4in /  1030.3hPa ESE 1.9mph /  3.1km/h 4mph /  6.4km/h 54.2% 0in /  0.0mm 0 W/m2
18:39 44.4 °F /  6.9 °C 29.8 °F /  -1.2 °C 30.4in /  1030.3hPa ESE 1.9mph /  3.1km/h 4mph /  6.4km/h 56.3% 0in /  0.0mm 0 W/m2
18:44 44.1 °F /  6.7 °C 30 °F /  -1.1 °C 30.4in /  1030.3hPa ESE 1.5mph /  2.4km/h 3.5mph /  5.6km/h 57.5% 0in /  0.0mm 0 W/m2
18:49 43.7 °F /  6.5 °C 29.5 °F /  -1.4 °C 30.4in /  1030.3hPa ESE 0.5mph /  0.8km/h 3mph /  4.8km/h 57.2% 0in /  0.0mm 0 W/m2
18:54 43.3 °F /  6.3 °C 29.5 °F /  -1.4 °C 30.4in /  1030.4hPa ESE 1mph /  1.6km/h 3.5mph /  5.6km/h 58.2% 0in /  0.0mm 0 W/m2
18:59 43 °F /  6.1 °C 29.7 °F /  -1.3 °C 30.4in /  1030.4hPa ESE 0.1mph /  0.2km/h 3mph /  4.8km/h 59.1% 0in /  0.0mm 0 W/m2
19:04 42.6 °F /  5.9 °C 29.7 °F /  -1.3 °C 30.4in /  1030.5hPa Calm   1mph /  1.6km/h 59.8% 0in /  0.0mm 0 W/m2
19:09 42.4 °F /  5.8 °C 29.5 °F /  -1.4 °C 30.4in /  1030.5hPa Calm     59.9% 0in /  0.0mm 0 W/m2
19:14 42.4 °F /  5.8 °C 29.3 °F /  -1.5 °C 30.4in /  1030.6hPa Calm     59.1% 0in /  0.0mm 0 W/m2
19:19 42.3 °F /  5.7 °C 29.5 °F /  -1.4 °C 30.4in /  1030.6hPa Calm     60.6% 0in /  0.0mm 0 W/m2
19:24 41.9 °F /  5.5 °C 29.5 °F /  -1.4 °C 30.4in /  1030.6hPa Calm     61.3% 0in /  0.0mm 0 W/m2
19:29 41.5 °F /  5.3 °C 29.8 °F /  -1.2 °C 30.4in /  1030.6hPa Calm     62.8% 0in /  0.0mm 0 W/m2
19:34 41.2 °F /  5.1 °C 29.5 °F /  -1.4 °C 30.4in /  1030.6hPa Calm     63% 0in /  0.0mm 0 W/m2
19:39 40.6 °F /  4.8 °C 29.3 °F /  -1.5 °C 30.4in /  1030.6hPa Calm     63.4% 0in /  0.0mm 0 W/m2
19:44 40.3 °F /  4.6 °C 29.3 °F /  -1.5 °C 30.4in /  1030.6hPa Calm     64.8% 0in /  0.0mm 0 W/m2
19:49 40.1 °F /  4.5 °C 29.5 °F /  -1.4 °C 30.4in /  1030.6hPa Calm     65.9% 0in /  0.0mm 0 W/m2
19:54 39.9 °F /  4.4 °C 29.7 °F /  -1.3 °C 30.4in /  1030.6hPa Calm     66% 0in /  0.0mm 0 W/m2
19:59 39.7 °F /  4.3 °C 29.5 °F /  -1.4 °C 30.4in /  1030.6hPa Calm     66.6% 0in /  0.0mm 0 W/m2
20:04 39.4 °F /  4.1 °C 29.5 °F /  -1.4 °C 30.4in /  1030.6hPa Calm     67.4% 0in /  0.0mm 0 W/m2
20:09 39.2 °F /  4 °C 29.5 °F /  -1.4 °C 30.4in /  1030.6hPa Calm     68% 0in /  0.0mm 0 W/m2
20:14 39.2 °F /  4 °C 29.5 °F /  -1.4 °C 30.4in /  1030.6hPa Calm     68% 0in /  0.0mm 0 W/m2
20:19 39.4 °F /  4.1 °C 29.7 °F /  -1.3 °C 30.4in /  1030.6hPa Calm     68% 0in /  0.0mm 0 W/m2
20:24 39.6 °F /  4.2 °C 29.7 °F /  -1.3 °C 30.4in /  1030.6hPa Calm     67.3% 0in /  0.0mm 0 W/m2
20:29 39.7 °F /  4.3 °C 29.5 °F /  -1.4 °C 30.4in /  1030.5hPa Calm     66% 0in /  0.0mm 0 W/m2
20:34 39.7 °F /  4.3 °C 29.3 °F /  -1.5 °C 30.4in /  1030.5hPa Calm     66.3% 0in /  0.0mm 0 W/m2
20:39 39.4 °F /  4.1 °C 29.5 °F /  -1.4 °C 30.4in /  1030.6hPa Calm     67.6% 0in /  0.0mm 0 W/m2
20:44 38.8 °F /  3.8 °C 29.5 °F /  -1.4 °C 30.4in /  1030.5hPa Calm     68.5% 0in /  0.0mm 0 W/m2
20:49 39.4 °F /  4.1 °C 29.3 °F /  -1.5 °C 30.4in /  1030.6hPa Calm     67.2% 0in /  0.0mm 0 W/m2
20:54 39.6 °F /  4.2 °C 29.3 °F /  -1.5 °C 30.4in /  1030.7hPa Calm     66.2% 0in /  0.0mm 0 W/m2
20:59 39.4 °F /  4.1 °C 29.3 °F /  -1.5 °C 30.4in /  1030.7hPa Calm     66.7% 0in /  0.0mm 0 W/m2
21:04 39 °F /  3.9 °C 28.9 °F /  -1.7 °C 30.4in /  1030.7hPa Calm     66.8% 0in /  0.0mm 0 W/m2
21:09 38.5 °F /  3.6 °C 29.1 °F /  -1.6 °C 30.4in /  1030.7hPa Calm     68.4% 0in /  0.0mm 0 W/m2
21:14 38.1 °F /  3.4 °C 29.1 °F /  -1.6 °C 30.4in /  1030.8hPa Calm     70% 0in /  0.0mm 0 W/m2
21:19 37.6 °F /  3.1 °C 28.9 °F /  -1.7 °C 30.4in /  1030.8hPa Calm     70.7% 0in /  0.0mm 0 W/m2
21:24 37 °F /  2.8 °C 28.6 °F /  -1.9 °C 30.4in /  1030.8hPa Calm     71% 0in /  0.0mm 0 W/m2
21:29 35.8 °F /  2.1 °C 27.5 °F /  -2.5 °C 30.4in /  1030.9hPa Calm     72% 0in /  0.0mm 0 W/m2
21:34 35.2 °F /  1.8 °C 27.5 °F /  -2.5 °C 30.4in /  1030.9hPa NE 1.1mph /  1.7km/h 4mph /  6.4km/h 73.4% 0in /  0.0mm 0 W/m2
21:39 36 °F /  2.2 °C 28.4 °F /  -2 °C 30.4in /  1030.9hPa NE 2.9mph /  4.7km/h 4mph /  6.4km/h 73.7% 0in /  0.0mm 0 W/m2
21:44 37.6 °F /  3.1 °C 28.8 °F /  -1.8 °C 30.4in /  1031.0hPa NE 2.2mph /  3.6km/h 4mph /  6.4km/h 70.2% 0in /  0.0mm 0 W/m2
21:49 38.1 °F /  3.4 °C 28.8 °F /  -1.8 °C 30.4in /  1031.0hPa ENE 1.7mph /  2.8km/h 4mph /  6.4km/h 69% 0in /  0.0mm 0 W/m2
21:54 37.8 °F /  3.2 °C 28.6 °F /  -1.9 °C 30.4in /  1030.9hPa ENE 1.7mph /  2.8km/h 3.5mph /  5.6km/h 69.4% 0in /  0.0mm 0 W/m2
21:59 37.6 °F /  3.1 °C 28.4 °F /  -2 °C 30.4in /  1030.9hPa ENE 1.4mph /  2.2km/h 3.5mph /  5.6km/h 69.6% 0in /  0.0mm 0 W/m2
22:04 36.9 °F /  2.7 °C 28 °F /  -2.2 °C 30.4in /  1030.9hPa ENE 1.4mph /  2.2km/h 3mph /  4.8km/h 70.2% 0in /  0.0mm 0 W/m2
22:09 36.1 °F /  2.3 °C 28 °F /  -2.2 °C 30.4in /  1031.0hPa ENE 1.8mph /  2.9km/h 2.3mph /  3.7km/h 71.9% 0in /  0.0mm 0 W/m2
22:14 35.8 °F /  2.1 °C 28 °F /  -2.2 °C 30.4in /  1031.0hPa ENE 1.5mph /  2.4km/h 3.5mph /  5.6km/h 73.3% 0in /  0.0mm 0 W/m2
22:19 35.8 °F /  2.1 °C 28 °F /  -2.2 °C 30.4in /  1031.0hPa ENE 0.3mph /  0.5km/h 3mph /  4.8km/h 73.6% 0in /  0.0mm 0 W/m2
22:24 35.4 °F /  1.9 °C 27.9 °F /  -2.3 °C 30.4in /  1031.0hPa Calm   1mph /  1.6km/h 73.7% 0in /  0.0mm 0 W/m2
22:29 35.2 °F /  1.8 °C 28.2 °F /  -2.1 °C 30.4in /  1031.0hPa Calm     75% 0in /  0.0mm 0 W/m2
22:34 35.1 °F /  1.7 °C 28 °F /  -2.2 °C 30.4in /  1031.0hPa East 1.2mph /  1.9km/h 3.5mph /  5.6km/h 75.2% 0in /  0.0mm 0 W/m2
22:39 35.1 °F /  1.7 °C 28.2 °F /  -2.1 °C 30.4in /  1031.0hPa ENE 1.4mph /  2.3km/h 3.5mph /  5.6km/h 76% 0in /  0.0mm 0 W/m2
22:44 35.2 °F /  1.8 °C 28.4 °F /  -2 °C 30.4in /  1030.9hPa East 1.4mph /  2.2km/h 3.5mph /  5.6km/h 76% 0in /  0.0mm 0 W/m2
22:49 34.9 °F /  1.6 °C 28.2 °F /  -2.1 °C 30.4in /  1030.9hPa ENE 2.1mph /  3.3km/h 3.5mph /  5.6km/h 76.4% 0in /  0.0mm 0 W/m2
22:54 35.1 °F /  1.7 °C 28 °F /  -2.2 °C 30.4in /  1030.9hPa ENE 1.6mph /  2.6km/h 2.3mph /  3.7km/h 75.7% 0in /  0.0mm 0 W/m2
22:59 35.2 °F /  1.8 °C 28.2 °F /  -2.1 °C 30.4in /  1031.0hPa ENE 1.5mph /  2.4km/h 2.3mph /  3.7km/h 75.6% 0in /  0.0mm 0 W/m2
23:04 35.1 °F /  1.7 °C 28.2 °F /  -2.1 °C 30.4in /  1031.0hPa ENE 1.2mph /  1.9km/h 2.3mph /  3.7km/h 75.8% 0in /  0.0mm 0 W/m2
23:09 34.9 °F /  1.6 °C 28 °F /  -2.2 °C 30.4in /  1031.0hPa ENE 2mph /  3.2km/h 3.5mph /  5.6km/h 76.3% 0in /  0.0mm 0 W/m2
23:14 34.7 °F /  1.5 °C 28.2 °F /  -2.1 °C 30.4in /  1030.9hPa ENE 2.2mph /  3.6km/h 3.5mph /  5.6km/h 76.8% 0in /  0.0mm 0 W/m2
23:19 34.7 °F /  1.5 °C 28.2 °F /  -2.1 °C 30.4in /  1030.9hPa ENE 2.6mph /  4.2km/h 4mph /  6.4km/h 76.9% 0in /  0.0mm 0 W/m2
23:24 34.5 °F /  1.4 °C 28 °F /  -2.2 °C 30.4in /  1030.9hPa ENE 2.3mph /  3.7km/h 4mph /  6.4km/h 77% 0in /  0.0mm 0 W/m2
23:29 35.2 °F /  1.8 °C 28 °F /  -2.2 °C 30.4in /  1030.9hPa ENE 2.5mph /  4.1km/h 4mph /  6.4km/h 75.1% 0in /  0.0mm 0 W/m2
23:34 36.1 °F /  2.3 °C 27.9 °F /  -2.3 °C 30.4in /  1030.8hPa ENE 2.5mph /  4km/h 4mph /  6.4km/h 71.9% 0in /  0.0mm 0 W/m2
23:39 36.9 °F /  2.7 °C 27.9 °F /  -2.3 °C 30.4in /  1030.8hPa ENE 2.4mph /  3.9km/h 5mph /  8km/h 70% 0in /  0.0mm 0 W/m2
23:44 36.9 °F /  2.7 °C 27.7 °F /  -2.4 °C 30.4in /  1030.8hPa ENE 2.6mph /  4.2km/h 5mph /  8km/h 69.2% 0in /  0.0mm 0 W/m2
23:49 37 °F /  2.8 °C 27.5 °F /  -2.5 °C 30.4in /  1030.7hPa NE 1.9mph /  3km/h 5mph /  8km/h 68.2% 0in /  0.0mm 0 W/m2
23:54 36.3 °F /  2.4 °C 27.3 °F /  -2.6 °C 30.4in /  1030.7hPa NE 1.8mph /  2.9km/h 3.5mph /  5.6km/h 69.4% 0in /  0.0mm 0 W/m2
23:59 35.6 °F /  2 °C 27.5 °F /  -2.5 °C 30.4in /  1030.7hPa NE 2.6mph /  4.2km/h 3.5mph /  5.6km/h 71.8% 0in /  0.0mm 0 W/m2
Stazione Meteorologica MeteoMincio Rivalta s/M (MN)
Con i complimenti di Weather Underground - 4 mb


GLOSSARIO METEOROLOGICO
Indice UV
E' una misura semplice per l'intensità della radiazione UV del sole, che non riusciamo a percepire ma comunque possiamo misurare. Con più l'indice è elevato, con più intensa è la radiazione solare. L'indice UV ci permette di meglio stimare l'intensità del sole e di adottare le misure necessarie per proteggerci.

Do NOT follow this link or you will be banned from the site!